Leadville, CO

12:08 AM MDT on August 20, 2014 (GMT -0600)
Copper Mountain | Change Station
CLOSE
Current Station
Airport
Location: Copper Mountain,
Elevation: 12073 ft
Nearby Weather Stations

Elev 12073 ft 39.48 °N, 106.15 °W | Updated 12 minutes ago

Overcast
Overcast
45 °F
Feels Like 40 °F
N
8
Wind Variable Wind from South

Today
High -- | Low -- °F
--% Chance of Precip.
Yesterday
High -- | Low -- °F
Precip. -- in
6:22 AM 7:53 PM
Waning Crescent, 24% visible
Pressure 30.42 in
Visibility 1.0 miles
Clouds Mostly Cloudy 200 ft
Overcast 3100 ft
Windchill 40 °F
Dew Point 41 °F
Humidity 87%
Rainfall 0.08 in
Snow Depth Not available.
UV 0 out of 12
Pollen 9.60 out of 12
Air Quality Not available.
Flu Activity Not available.
METAR KCCU 200556Z AUTO 18007KT 1SM BR BKN002 OVC031 07/05 A3042 RMK AO2

More Conditions Fewer Conditions

Pressure 30.42 in
Visibility 1.0 miles
Clouds Mostly Cloudy 200 ft
Overcast 3100 ft
Windchill 40 °F
Dew Point 41 °F
Humidity 87%
Rainfall 0.08 in
Snow Depth Not available.
UV 0 out of 12
Pollen 9.60 out of 12
Air Quality Not available.
Flu Activity Not available.
METAR KCCU 200556Z AUTO 18007KT 1SM BR BKN002 OVC031 07/05 A3042 RMK AO2

More Conditions Fewer Conditions

10-Day Weather Forecast

Almanac

Astronomy

Aug. 20, 2014 Rise Set
Actual Time 6:22 AM MDT 7:53 PM MDT
Civil Twilight 5:54 AM MDT 8:21 PM MDT
Nautical Twilight 5:20 AM MDT 8:55 PM MDT
Astronomical Twilight 4:44 AM MDT 9:31 PM MDT
Moon 2:05 AM MDT 4:39 PM MDT
Length of Visible Light 14h 27m
Length of Day
13h 30m
Tomorrow will be 2m 20s shorter.
Waning Crescent, 24% of the Moon is Illuminated
Today
Waning Crescent
Aug 25
New
Sep 2
First Quarter
Sep 8
Full
Sep 15
Last Quarter

Today's Extremes

State Highs State Lows

Community

WunderPhotos

Upload Photos

1,745,592 photos uploaded!

Nearby

Snow Depth

Station Depth Elevation
Buckskin Joe 0 in 11150 ft
Hoosier Pass 0 in 11400 ft
Copper Mountain 0 in 10500 ft
Ivanhoe 0 in 10400 ft
Michigan Creek 0 in 10600 ft

Earthquake Activity

City Distance Mag. Time & Date
No recent earthquake activity has been reported nearby.
Minimum magnitude displayed is 2.5.

Coastal Water Temperatures

Place Temperature
No Stations Reporting

Nearby Weather Stations